sensor_id;sensor_type;location;lat;lon;timestamp;pressure;altitude;pressure_sealevel;temperature;humidity
20160;BME280;50187;50.492;12.134;2023-06-26T00:01:31;97656.03;;;24.80;45.77
20160;BME280;50187;50.492;12.134;2023-06-26T00:03:58;97659.78;;;24.79;45.61
20160;BME280;50187;50.492;12.134;2023-06-26T00:06:29;97653.13;;;24.81;45.66
20160;BME280;50187;50.492;12.134;2023-06-26T00:08:55;97656.72;;;24.82;45.59
20160;BME280;50187;50.492;12.134;2023-06-26T00:11:23;97646.19;;;24.79;45.74
20160;BME280;50187;50.492;12.134;2023-06-26T00:13:53;97657.06;;;24.79;45.64
20160;BME280;50187;50.492;12.134;2023-06-26T00:16:19;97650.41;;;24.81;45.61
20160;BME280;50187;50.492;12.134;2023-06-26T00:18:46;97662.59;;;24.85;45.97
20160;BME280;50187;50.492;12.134;2023-06-26T00:21:13;97666.53;;;24.83;45.71
20160;BME280;50187;50.492;12.134;2023-06-26T00:23:39;97665.22;;;24.79;45.57
20160;BME280;50187;50.492;12.134;2023-06-26T00:26:06;97635.44;;;24.71;45.59
20160;BME280;50187;50.492;12.134;2023-06-26T00:28:36;97637.75;;;24.74;45.87
20160;BME280;50187;50.492;12.134;2023-06-26T00:31:05;97676.38;;;24.84;45.96
20160;BME280;50187;50.492;12.134;2023-06-26T00:33:38;97664.00;;;24.81;45.63
20160;BME280;50187;50.492;12.134;2023-06-26T00:36:05;97658.31;;;24.76;45.72
20160;BME280;50187;50.492;12.134;2023-06-26T00:38:31;97651.44;;;24.80;45.60
20160;BME280;50187;50.492;12.134;2023-06-26T00:40:58;97659.59;;;24.80;45.84
20160;BME280;50187;50.492;12.134;2023-06-26T00:43:25;97639.44;;;24.75;45.60
20160;BME280;50187;50.492;12.134;2023-06-26T00:45:51;97648.25;;;24.77;45.72
20160;BME280;50187;50.492;12.134;2023-06-26T00:48:19;97649.47;;;24.74;45.77
20160;BME280;50187;50.492;12.134;2023-06-26T00:50:54;97650.41;;;24.81;45.61
20160;BME280;50187;50.492;12.134;2023-06-26T00:53:21;97656.88;;;24.80;45.82
20160;BME280;50187;50.492;12.134;2023-06-26T00:55:49;97624.38;;;24.72;45.66
20160;BME280;50187;50.492;12.134;2023-06-26T00:58:15;97644.13;;;24.81;45.94
20160;BME280;50187;50.492;12.134;2023-06-26T01:00:42;97619.75;;;24.73;45.68
20160;BME280;50187;50.492;12.134;2023-06-26T01:03:14;97625.47;;;24.78;45.75
20160;BME280;50187;50.492;12.134;2023-06-26T01:05:41;97642.03;;;24.83;45.85
20160;BME280;50187;50.492;12.134;2023-06-26T01:08:12;97642.25;;;24.81;45.93
20160;BME280;50187;50.492;12.134;2023-06-26T01:10:40;97635.97;;;24.81;45.81
20160;BME280;50187;50.492;12.134;2023-06-26T01:13:07;97629.50;;;24.82;45.61
20160;BME280;50187;50.492;12.134;2023-06-26T01:15:34;97634.94;;;24.82;45.89
20160;BME280;50187;50.492;12.134;2023-06-26T01:18:02;97640.19;;;24.83;45.69
20160;BME280;50187;50.492;12.134;2023-06-26T01:20:37;97631.16;;;24.83;45.69
20160;BME280;50187;50.492;12.134;2023-06-26T01:23:44;97625.91;;;24.81;45.66
20160;BME280;50187;50.492;12.134;2023-06-26T01:26:20;97616.06;;;24.80;45.69
20160;BME280;50187;50.492;12.134;2023-06-26T01:28:49;97619.66;;;24.81;45.90
20160;BME280;50187;50.492;12.134;2023-06-26T01:31:17;97621.34;;;24.82;45.76
20160;BME280;50187;50.492;12.134;2023-06-26T01:33:46;97623.59;;;24.78;45.93
20160;BME280;50187;50.492;12.134;2023-06-26T01:36:13;97614.19;;;24.81;45.64
20160;BME280;50187;50.492;12.134;2023-06-26T01:38:40;97614.19;;;24.81;45.70
20160;BME280;50187;50.492;12.134;2023-06-26T01:41:07;97617.94;;;24.80;45.69
20160;BME280;50187;50.492;12.134;2023-06-26T01:54:52;97609.78;;;24.80;45.75
20160;BME280;50187;50.492;12.134;2023-06-26T01:57:19;97601.81;;;24.78;45.79
20160;BME280;50187;50.492;12.134;2023-06-26T01:59:50;97602.66;;;24.79;45.88
20160;BME280;50187;50.492;12.134;2023-06-26T02:02:17;97608.09;;;24.79;45.85
20160;BME280;50187;50.492;12.134;2023-06-26T02:04:44;97601.00;;;24.78;45.84
20160;BME280;50187;50.492;12.134;2023-06-26T02:07:14;97595.53;;;24.78;45.73
20160;BME280;50187;50.492;12.134;2023-06-26T02:09:41;97593.03;;;24.76;45.93
20160;BME280;50187;50.492;12.134;2023-06-26T02:12:09;97606.44;;;24.78;45.94
20160;BME280;50187;50.492;12.134;2023-06-26T02:14:36;97600.13;;;24.77;45.97
20160;BME280;50187;50.492;12.134;2023-06-26T02:17:03;97596.78;;;24.75;45.68
20160;BME280;50187;50.492;12.134;2023-06-26T02:19:30;97607.47;;;24.77;46.00
20160;BME280;50187;50.492;12.134;2023-06-26T02:21:57;97602.22;;;24.75;45.90
20160;BME280;50187;50.492;12.134;2023-06-26T02:24:24;97602.00;;;24.77;45.83
20160;BME280;50187;50.492;12.134;2023-06-26T02:26:50;97622.75;;;24.78;45.79
20160;BME280;50187;50.492;12.134;2023-06-26T02:29:17;97604.72;;;24.77;45.87
20160;BME280;50187;50.492;12.134;2023-06-26T02:31:43;97606.44;;;24.78;45.90
20160;BME280;50187;50.492;12.134;2023-06-26T02:34:10;97603.72;;;24.78;46.02
20160;BME280;50187;50.492;12.134;2023-06-26T02:36:37;97599.28;;;24.77;45.93
20160;BME280;50187;50.492;12.134;2023-06-26T02:39:04;97595.75;;;24.76;45.70
20160;BME280;50187;50.492;12.134;2023-06-26T02:41:32;97602.00;;;24.77;46.04
20160;BME280;50187;50.492;12.134;2023-06-26T02:43:59;97593.03;;;24.76;46.07
20160;BME280;50187;50.492;12.134;2023-06-26T02:46:26;97597.59;;;24.76;45.79
20160;BME280;50187;50.492;12.134;2023-06-26T02:48:55;97591.13;;;24.77;45.96
20160;BME280;50187;50.492;12.134;2023-06-26T02:51:22;97602.00;;;24.77;46.01
20160;BME280;50187;50.492;12.134;2023-06-26T02:53:49;97595.91;;;24.75;45.94
20160;BME280;50187;50.492;12.134;2023-06-26T02:56:15;97590.47;;;24.75;45.72
20160;BME280;50187;50.492;12.134;2023-06-26T02:58:42;97597.59;;;24.76;45.85
20160;BME280;50187;50.492;12.134;2023-06-26T03:01:09;97596.78;;;24.75;45.89
20160;BME280;50187;50.492;12.134;2023-06-26T03:03:37;97597.59;;;24.76;45.90
20160;BME280;50187;50.492;12.134;2023-06-26T03:06:12;97593.19;;;24.75;45.86
20160;BME280;50187;50.492;12.134;2023-06-26T03:08:39;97585.03;;;24.75;46.09
20160;BME280;50187;50.492;12.134;2023-06-26T03:11:08;97588.59;;;24.75;45.89
20160;BME280;50187;50.492;12.134;2023-06-26T03:13:37;97589.63;;;24.74;45.89
20160;BME280;50187;50.492;12.134;2023-06-26T03:16:04;97582.50;;;24.73;45.96
20160;BME280;50187;50.492;12.134;2023-06-26T03:18:31;97586.91;;;24.74;45.96
20160;BME280;50187;50.492;12.134;2023-06-26T03:20:59;97585.22;;;24.73;45.75
20160;BME280;50187;50.492;12.134;2023-06-26T03:23:26;97588.81;;;24.74;45.77
20160;BME280;50187;50.492;12.134;2023-06-26T03:25:53;97588.81;;;24.74;45.79
20160;BME280;50187;50.492;12.134;2023-06-26T03:28:29;97599.69;;;24.74;45.78
20160;BME280;50187;50.492;12.134;2023-06-26T03:30:57;97586.09;;;24.74;45.92
20160;BME280;50187;50.492;12.134;2023-06-26T03:33:25;97595.06;;;24.74;45.88
20160;BME280;50187;50.492;12.134;2023-06-26T03:35:52;97582.69;;;24.72;45.87
20160;BME280;50187;50.492;12.134;2023-06-26T03:38:19;97590.47;;;24.75;45.78
20160;BME280;50187;50.492;12.134;2023-06-26T03:40:46;97586.09;;;24.74;45.70
20160;BME280;50187;50.492;12.134;2023-06-26T03:43:13;97587.09;;;24.73;45.79
20160;BME280;50187;50.492;12.134;2023-06-26T03:45:50;97588.81;;;24.74;45.90
20160;BME280;50187;50.492;12.134;2023-06-26T03:48:17;97586.28;;;24.72;45.81
20160;BME280;50187;50.492;12.134;2023-06-26T03:50:44;97585.22;;;24.73;46.05
20160;BME280;50187;50.492;12.134;2023-06-26T03:53:11;97582.69;;;24.72;45.98
20160;BME280;50187;50.492;12.134;2023-06-26T03:55:39;97584.38;;;24.73;45.96
20160;BME280;50187;50.492;12.134;2023-06-26T03:58:06;97579.78;;;24.73;45.74
20160;BME280;50187;50.492;12.134;2023-06-26T04:00:33;97582.50;;;24.73;45.70
20160;BME280;50187;50.492;12.134;2023-06-26T04:03:00;97577.25;;;24.72;45.77
20160;BME280;50187;50.492;12.134;2023-06-26T04:05:29;97573.91;;;24.69;45.75
20160;BME280;50187;50.492;12.134;2023-06-26T04:07:56;97577.06;;;24.73;45.77
20160;BME280;50187;50.492;12.134;2023-06-26T04:10:22;97576.41;;;24.71;45.85
20160;BME280;50187;50.492;12.134;2023-06-26T04:12:49;97584.38;;;24.73;45.71
20160;BME280;50187;50.492;12.134;2023-06-26T04:15:16;97584.38;;;24.73;45.98
20160;BME280;50187;50.492;12.134;2023-06-26T04:17:42;97578.94;;;24.73;45.99
20160;BME280;50187;50.492;12.134;2023-06-26T04:20:09;97580.66;;;24.74;45.83
20160;BME280;50187;50.492;12.134;2023-06-26T04:22:36;97572.88;;;24.71;45.79
20160;BME280;50187;50.492;12.134;2023-06-26T04:25:03;97575.19;;;24.74;45.81
20160;BME280;50187;50.492;12.134;2023-06-26T04:27:30;97569.09;;;24.72;45.69
20160;BME280;50187;50.492;12.134;2023-06-26T04:29:56;97570.78;;;24.73;45.91
20160;BME280;50187;50.492;12.134;2023-06-26T04:32:23;97571.81;;;24.72;45.93
20160;BME280;50187;50.492;12.134;2023-06-26T04:34:50;97568.06;;;24.73;45.76
20160;BME280;50187;50.492;12.134;2023-06-26T04:37:17;97569.09;;;24.72;45.95
20160;BME280;50187;50.492;12.134;2023-06-26T04:39:43;97568.06;;;24.73;45.93
20160;BME280;50187;50.492;12.134;2023-06-26T04:42:10;97566.19;;;24.73;45.78
20160;BME280;50187;50.492;12.134;2023-06-26T04:44:38;97565.34;;;24.73;45.81
20160;BME280;50187;50.492;12.134;2023-06-26T04:47:08;97565.34;;;24.73;45.79
20160;BME280;50187;50.492;12.134;2023-06-26T04:49:34;97559.06;;;24.72;45.71
20160;BME280;50187;50.492;12.134;2023-06-26T04:52:04;97565.34;;;24.73;45.93
20160;BME280;50187;50.492;12.134;2023-06-26T04:54:31;97558.88;;;24.74;45.93
20160;BME280;50187;50.492;12.134;2023-06-26T04:56:57;97562.44;;;24.74;45.89
20160;BME280;50187;50.492;12.134;2023-06-26T04:59:25;97549.84;;;24.73;45.93
20160;BME280;50187;50.492;12.134;2023-06-26T05:01:52;97557.00;;;24.74;45.76
20160;BME280;50187;50.492;12.134;2023-06-26T05:04:18;97572.41;;;24.67;45.82
20160;BME280;50187;50.492;12.134;2023-06-26T05:06:45;97552.56;;;24.73;45.95
20160;BME280;50187;50.492;12.134;2023-06-26T05:09:11;97560.53;;;24.75;45.89
20160;BME280;50187;50.492;12.134;2023-06-26T05:11:38;97556.16;;;24.74;45.84
20160;BME280;50187;50.492;12.134;2023-06-26T05:14:05;97549.66;;;24.75;45.88
20160;BME280;50187;50.492;12.134;2023-06-26T05:16:33;97556.16;;;24.74;45.90
20160;BME280;50187;50.492;12.134;2023-06-26T05:19:01;97557.81;;;24.75;45.84
20160;BME280;50187;50.492;12.134;2023-06-26T05:21:28;97553.44;;;24.74;45.85
20160;BME280;50187;50.492;12.134;2023-06-26T05:23:56;97552.38;;;24.75;45.92
20160;BME280;50187;50.492;12.134;2023-06-26T05:26:23;97560.53;;;24.75;45.86
20160;BME280;50187;50.492;12.134;2023-06-26T05:28:50;97550.53;;;24.75;45.82
20160;BME280;50187;50.492;12.134;2023-06-26T05:31:17;97549.66;;;24.75;45.82
20160;BME280;50187;50.492;12.134;2023-06-26T05:33:55;97539.84;;;24.74;45.81
20160;BME280;50187;50.492;12.134;2023-06-26T05:36:24;97545.09;;;24.75;46.02
20160;BME280;50187;50.492;12.134;2023-06-26T05:38:51;97541.50;;;24.75;45.89
20160;BME280;50187;50.492;12.134;2023-06-26T05:41:18;97546.94;;;24.75;45.80
20160;BME280;50187;50.492;12.134;2023-06-26T05:43:44;97547.81;;;24.75;45.80
20160;BME280;50187;50.492;12.134;2023-06-26T05:46:11;97541.34;;;24.76;45.78
20160;BME280;50187;50.492;12.134;2023-06-26T05:48:38;97537.56;;;24.77;45.80
20160;BME280;50187;50.492;12.134;2023-06-26T05:51:05;97541.97;;;24.78;45.90
20160;BME280;50187;50.492;12.134;2023-06-26T05:53:32;97541.13;;;24.78;45.88
20160;BME280;50187;50.492;12.134;2023-06-26T05:55:59;97548.25;;;24.79;45.88
20160;BME280;50187;50.492;12.134;2023-06-26T05:58:26;97542.81;;;24.79;45.78
20160;BME280;50187;50.492;12.134;2023-06-26T06:00:54;97545.53;;;24.79;45.94
20160;BME280;50187;50.492;12.134;2023-06-26T06:03:21;97541.78;;;24.80;45.92
20160;BME280;50187;50.492;12.134;2023-06-26T06:05:48;97541.38;;;24.83;45.65
20160;BME280;50187;50.492;12.134;2023-06-26T06:08:14;97545.31;;;24.80;45.73
20160;BME280;50187;50.492;12.134;2023-06-26T06:10:41;97550.59;;;24.82;45.65
20160;BME280;50187;50.492;12.134;2023-06-26T06:13:08;97550.41;;;24.83;45.86
20160;BME280;50187;50.492;12.134;2023-06-26T06:15:35;97542.25;;;24.83;45.77
20160;BME280;50187;50.492;12.134;2023-06-26T06:18:01;97543.06;;;24.84;45.58
20160;BME280;50187;50.492;12.134;2023-06-26T06:20:28;97531.56;;;24.82;45.72
20160;BME280;50187;50.492;12.134;2023-06-26T06:22:54;97539.97;;;24.87;45.67
20160;BME280;50187;50.492;12.134;2023-06-26T06:25:21;97532.47;;;24.89;45.77
20160;BME280;50187;50.492;12.134;2023-06-26T06:27:48;97533.28;;;24.90;45.65
20160;BME280;50187;50.492;12.134;2023-06-26T06:30:14;97529.53;;;24.91;45.61
20160;BME280;50187;50.492;12.134;2023-06-26T06:32:41;97529.16;;;24.94;45.61
20160;BME280;50187;50.492;12.134;2023-06-26T06:35:08;97537.13;;;24.95;45.59
20160;BME280;50187;50.492;12.134;2023-06-26T06:37:38;97535.88;;;24.98;45.41
20160;BME280;50187;50.492;12.134;2023-06-26T06:40:09;97532.97;;;24.99;45.39
20160;BME280;50187;50.492;12.134;2023-06-26T06:42:36;97534.66;;;25.00;45.49
20160;BME280;50187;50.492;12.134;2023-06-26T06:45:03;97527.13;;;25.02;45.55
20160;BME280;50187;50.492;12.134;2023-06-26T06:47:34;97530.53;;;25.05;45.54
20160;BME280;50187;50.492;12.134;2023-06-26T06:50:02;97526.53;;;25.07;45.56
20160;BME280;50187;50.492;12.134;2023-06-26T06:52:38;97523.66;;;25.09;45.33
20160;BME280;50187;50.492;12.134;2023-06-26T06:55:07;97523.44;;;25.10;45.21
20160;BME280;50187;50.492;12.134;2023-06-26T06:57:38;97522.84;;;25.15;45.18
20160;BME280;50187;50.492;12.134;2023-06-26T07:00:10;97520.56;;;25.18;45.26
20160;BME280;50187;50.492;12.134;2023-06-26T07:02:38;97516.81;;;25.19;45.11
20160;BME280;50187;50.492;12.134;2023-06-26T07:05:06;97508.25;;;25.23;44.89
20160;BME280;50187;50.492;12.134;2023-06-26T07:07:34;97517.06;;;25.25;44.83
20160;BME280;50187;50.492;12.134;2023-06-26T07:12:31;97503.06;;;25.28;45.06
20160;BME280;50187;50.492;12.134;2023-06-26T07:14:59;97514.41;;;25.31;44.99
20160;BME280;50187;50.492;12.134;2023-06-26T07:17:45;97510.66;;;25.32;44.79
20160;BME280;50187;50.492;12.134;2023-06-26T07:20:11;97512.34;;;25.33;44.82
20160;BME280;50187;50.492;12.134;2023-06-26T07:22:42;97506.06;;;25.33;45.04
20160;BME280;50187;50.492;12.134;2023-06-26T07:25:11;97515.53;;;25.37;44.92
20160;BME280;50187;50.492;12.134;2023-06-26T07:27:39;97508.81;;;25.40;45.00
20160;BME280;50187;50.492;12.134;2023-06-26T07:30:06;97513.25;;;25.41;44.81
20160;BME280;50187;50.492;12.134;2023-06-26T07:32:37;97508.47;;;25.43;44.72
20160;BME280;50187;50.492;12.134;2023-06-26T07:35:04;97512.84;;;25.44;44.63
20160;BME280;50187;50.492;12.134;2023-06-26T07:37:31;97495.66;;;25.43;44.77
20160;BME280;50187;50.492;12.134;2023-06-26T07:39:58;97511.59;;;25.46;44.59
20160;BME280;50187;50.492;12.134;2023-06-26T07:42:25;97502.22;;;25.49;44.88
20160;BME280;50187;50.492;12.134;2023-06-26T07:44:51;97503.03;;;25.49;44.79
20160;BME280;50187;50.492;12.134;2023-06-26T07:47:18;97495.53;;;25.51;44.71
20160;BME280;50187;50.492;12.134;2023-06-26T07:49:45;97491.97;;;25.51;44.70
20160;BME280;50187;50.492;12.134;2023-06-26T07:52:11;97492.19;;;25.56;44.81
20160;BME280;50187;50.492;12.134;2023-06-26T07:54:38;97490.13;;;25.58;44.55
20160;BME280;50187;50.492;12.134;2023-06-26T07:57:05;97489.06;;;25.59;44.43
20160;BME280;50187;50.492;12.134;2023-06-26T07:59:35;97482.59;;;25.60;44.46
20160;BME280;50187;50.492;12.134;2023-06-26T08:02:03;97481.16;;;25.64;44.52
20160;BME280;50187;50.492;12.134;2023-06-26T08:04:30;97472.78;;;25.66;44.39
20160;BME280;50187;50.492;12.134;2023-06-26T08:07:01;97479.91;;;25.67;44.37
20160;BME280;50187;50.492;12.134;2023-06-26T08:09:29;97475.09;;;25.69;44.59
20160;BME280;50187;50.492;12.134;2023-06-26T08:11:56;97467.13;;;25.67;44.36
20160;BME280;50187;50.492;12.134;2023-06-26T08:14:23;97475.13;;;25.76;44.43
20160;BME280;50187;50.492;12.134;2023-06-26T08:16:50;97467.78;;;25.76;44.42
20160;BME280;50187;50.492;12.134;2023-06-26T08:19:17;97475.38;;;25.81;44.41
20160;BME280;50187;50.492;12.134;2023-06-26T08:21:45;97473.28;;;25.83;44.19
20160;BME280;50187;50.492;12.134;2023-06-26T08:24:12;97476.66;;;25.85;44.14
20160;BME280;50187;50.492;12.134;2023-06-26T08:26:39;97474.75;;;25.85;44.26
20160;BME280;50187;50.492;12.134;2023-06-26T08:29:06;97475.22;;;25.89;44.25
20160;BME280;50187;50.492;12.134;2023-06-26T08:31:39;97468.50;;;25.92;44.11
20160;BME280;50187;50.492;12.134;2023-06-26T08:34:07;97464.53;;;25.94;44.33
20160;BME280;50187;50.492;12.134;2023-06-26T08:36:34;97467.03;;;25.96;44.25
20160;BME280;50187;50.492;12.134;2023-06-26T08:39:00;97463.09;;;25.98;44.20
20160;BME280;50187;50.492;12.134;2023-06-26T08:41:27;97469.19;;;26.00;44.08
20160;BME280;50187;50.492;12.134;2023-06-26T08:43:54;97467.94;;;26.03;43.83
20160;BME280;50187;50.492;12.134;2023-06-26T08:46:21;97465.00;;;26.04;43.85
20160;BME280;50187;50.492;12.134;2023-06-26T08:48:51;97463.34;;;26.03;43.99
20160;BME280;50187;50.492;12.134;2023-06-26T08:51:21;97467.38;;;26.08;43.70
20160;BME280;50187;50.492;12.134;2023-06-26T08:54:01;97469.66;;;26.11;43.87
20160;BME280;50187;50.492;12.134;2023-06-26T08:56:32;97463.19;;;26.12;43.64
20160;BME280;50187;50.492;12.134;2023-06-26T08:59:02;97457.53;;;26.13;43.85
20160;BME280;50187;50.492;12.134;2023-06-26T09:01:31;97454.38;;;26.16;43.78
20160;BME280;50187;50.492;12.134;2023-06-26T09:03:58;97465.09;;;26.18;43.78
20160;BME280;50187;50.492;12.134;2023-06-26T09:06:25;97456.06;;;26.17;43.84
20160;BME280;50187;50.492;12.134;2023-06-26T09:08:52;97459.00;;;26.22;43.62
20160;BME280;50187;50.492;12.134;2023-06-26T09:11:18;97446.00;;;26.18;43.61
20160;BME280;50187;50.492;12.134;2023-06-26T09:13:45;97448.53;;;26.26;43.45
20160;BME280;50187;50.492;12.134;2023-06-26T09:16:14;97434.91;;;26.26;43.68
20160;BME280;50187;50.492;12.134;2023-06-26T09:18:41;97445.81;;;26.26;43.46
20160;BME280;50187;50.492;12.134;2023-06-26T09:21:09;97447.91;;;26.31;43.62
20160;BME280;50187;50.492;12.134;2023-06-26T09:23:36;97447.91;;;26.31;43.60
20160;BME280;50187;50.492;12.134;2023-06-26T09:26:04;97449.41;;;26.33;43.31
20160;BME280;50187;50.492;12.134;2023-06-26T09:28:32;97445.44;;;26.36;43.48
20160;BME280;50187;50.492;12.134;2023-06-26T09:31:03;97435.34;;;26.36;43.54
20160;BME280;50187;50.492;12.134;2023-06-26T09:33:38;97439.75;;;26.37;43.42
20160;BME280;50187;50.492;12.134;2023-06-26T09:36:06;97443.13;;;26.39;43.31
20160;BME280;50187;50.492;12.134;2023-06-26T09:38:34;97446.50;;;26.42;43.37
20160;BME280;50187;50.492;12.134;2023-06-26T09:41:02;97435.38;;;26.43;43.48
20160;BME280;50187;50.492;12.134;2023-06-26T09:43:29;97436.19;;;26.44;43.44
20160;BME280;50187;50.492;12.134;2023-06-26T09:45:57;97433.25;;;26.45;43.36
20160;BME280;50187;50.492;12.134;2023-06-26T09:48:25;97431.19;;;26.47;43.08
20160;BME280;50187;50.492;12.134;2023-06-26T09:50:53;97429.06;;;26.49;43.27
20160;BME280;50187;50.492;12.134;2023-06-26T09:53:37;97437.06;;;26.51;43.37
20160;BME280;50187;50.492;12.134;2023-06-26T09:56:15;97431.81;;;26.49;43.30
20160;BME280;50187;50.492;12.134;2023-06-26T09:58:44;97430.56;;;26.52;43.33
20160;BME280;50187;50.492;12.134;2023-06-26T10:01:10;97429.31;;;26.54;42.98
20160;BME280;50187;50.492;12.134;2023-06-26T10:03:37;97424.69;;;26.55;43.27
20160;BME280;50187;50.492;12.134;2023-06-26T10:06:04;97423.63;;;26.56;43.08
20160;BME280;50187;50.492;12.134;2023-06-26T10:08:33;97430.78;;;26.57;43.07
20160;BME280;50187;50.492;12.134;2023-06-26T10:11:00;97420.69;;;26.57;43.01
20160;BME280;50187;50.492;12.134;2023-06-26T10:13:31;97423.22;;;26.59;42.99
20160;BME280;50187;50.492;12.134;2023-06-26T10:16:01;97417.75;;;26.59;42.93
20160;BME280;50187;50.492;12.134;2023-06-26T10:18:31;97415.69;;;26.61;43.07
20160;BME280;50187;50.492;12.134;2023-06-26T10:20:59;97413.16;;;26.60;43.12
20160;BME280;50187;50.492;12.134;2023-06-26T10:23:27;97411.88;;;26.62;42.94
20160;BME280;50187;50.492;12.134;2023-06-26T10:25:58;97414.63;;;26.62;42.84
20160;BME280;50187;50.492;12.134;2023-06-26T10:28:30;97412.53;;;26.64;42.78
20160;BME280;50187;50.492;12.134;2023-06-26T10:30:58;97408.94;;;26.64;42.99
20160;BME280;50187;50.492;12.134;2023-06-26T10:33:26;97401.41;;;26.66;42.86
20160;BME280;50187;50.492;12.134;2023-06-26T10:35:53;97406.03;;;26.65;42.86
20160;BME280;50187;50.492;12.134;2023-06-26T10:38:19;97404.97;;;26.66;42.81
20160;BME280;50187;50.492;12.134;2023-06-26T10:40:47;97395.75;;;26.67;42.93
20160;BME280;50187;50.492;12.134;2023-06-26T10:43:18;97406.66;;;26.67;42.80
20160;BME280;50187;50.492;12.134;2023-06-26T10:45:48;97401.88;;;26.69;43.00
20160;BME280;50187;50.492;12.134;2023-06-26T10:48:21;97389.25;;;26.68;42.81
20160;BME280;50187;50.492;12.134;2023-06-26T10:50:49;97390.97;;;26.69;42.94
20160;BME280;50187;50.492;12.134;2023-06-26T10:56:02;97389.06;;;26.70;42.79
20160;BME280;50187;50.492;12.134;2023-06-26T10:58:42;97382.56;;;26.71;42.83
20160;BME280;50187;50.492;12.134;2023-06-26T11:03:44;97381.69;;;26.70;42.69
20160;BME280;50187;50.492;12.134;2023-06-26T11:06:17;97379.84;;;26.71;42.77
20160;BME280;50187;50.492;12.134;2023-06-26T11:08:55;97381.69;;;26.70;42.65
20160;BME280;50187;50.492;12.134;2023-06-26T11:14:32;97375.81;;;26.73;42.62
20160;BME280;50187;50.492;12.134;2023-06-26T11:16:59;97378.38;;;26.75;42.66
20160;BME280;50187;50.492;12.134;2023-06-26T11:19:28;97377.50;;;26.74;42.77
20160;BME280;50187;50.492;12.134;2023-06-26T11:21:59;97378.38;;;26.75;42.94
20160;BME280;50187;50.492;12.134;2023-06-26T11:24:26;97378.56;;;26.73;42.98
20160;BME280;50187;50.492;12.134;2023-06-26T11:26:59;97382.97;;;26.74;42.64
20160;BME280;50187;50.492;12.134;2023-06-26T11:29:26;97371.22;;;26.74;42.86
20160;BME280;50187;50.492;12.134;2023-06-26T11:31:59;97372.06;;;26.74;42.76
20160;BME280;50187;50.492;12.134;2023-06-26T11:34:31;97367.84;;;26.72;42.78
20160;BME280;50187;50.492;12.134;2023-06-26T11:36:58;97366.59;;;26.74;42.69
20160;BME280;50187;50.492;12.134;2023-06-26T11:39:27;97365.97;;;26.72;42.62
20160;BME280;50187;50.492;12.134;2023-06-26T11:41:54;97362.00;;;26.75;42.67
20160;BME280;50187;50.492;12.134;2023-06-26T11:44:21;97356.53;;;26.75;42.78
20160;BME280;50187;50.492;12.134;2023-06-26T11:46:51;97356.72;;;26.73;42.76
20160;BME280;50187;50.492;12.134;2023-06-26T11:49:18;97349.41;;;26.74;42.62
20160;BME280;50187;50.492;12.134;2023-06-26T11:51:46;97354.00;;;26.73;42.68
20160;BME280;50187;50.492;12.134;2023-06-26T11:54:13;97352.94;;;26.74;42.77
20160;BME280;50187;50.492;12.134;2023-06-26T11:56:41;97355.69;;;26.74;42.56
20160;BME280;50187;50.492;12.134;2023-06-26T11:59:11;97351.47;;;26.72;42.72
20160;BME280;50187;50.492;12.134;2023-06-26T12:01:38;97353.16;;;26.73;42.40
20160;BME280;50187;50.492;12.134;2023-06-26T12:04:07;97347.69;;;26.73;42.47
20160;BME280;50187;50.492;12.134;2023-06-26T12:06:36;97347.69;;;26.73;42.72
20160;BME280;50187;50.492;12.134;2023-06-26T12:09:08;97355.91;;;26.73;42.82
20160;BME280;50187;50.492;12.134;2023-06-26T12:11:38;97358.63;;;26.73;42.72
20160;BME280;50187;50.492;12.134;2023-06-26T12:14:05;97366.19;;;26.71;42.69
20160;BME280;50187;50.492;12.134;2023-06-26T12:16:36;97351.91;;;26.69;42.57
20160;BME280;50187;50.492;12.134;2023-06-26T12:19:04;97355.28;;;26.71;42.70
20160;BME280;50187;50.492;12.134;2023-06-26T12:24:08;97350.03;;;26.69;42.96
20160;BME280;50187;50.492;12.134;2023-06-26T12:26:35;97354.63;;;26.69;42.80
20160;BME280;50187;50.492;12.134;2023-06-26T12:29:09;97346.63;;;26.67;42.71
20160;BME280;50187;50.492;12.134;2023-06-26T12:31:42;97342.22;;;26.66;42.74
20160;BME280;50187;50.492;12.134;2023-06-26T12:34:13;97347.66;;;26.66;42.67
20160;BME280;50187;50.492;12.134;2023-06-26T12:36:48;97340.56;;;26.65;42.89
20160;BME280;50187;50.492;12.134;2023-06-26T12:39:17;97341.81;;;26.63;42.77
20160;BME280;50187;50.492;12.134;2023-06-26T12:41:56;97338.00;;;26.64;42.65
20160;BME280;50187;50.492;12.134;2023-06-26T12:44:29;97340.94;;;26.62;42.60
20160;BME280;50187;50.492;12.134;2023-06-26T12:47:00;97340.13;;;26.62;42.51
20160;BME280;50187;50.492;12.134;2023-06-26T12:51:59;97333.19;;;26.59;42.84
20160;BME280;50187;50.492;12.134;2023-06-26T12:54:25;97330.47;;;26.59;42.93
20160;BME280;50187;50.492;12.134;2023-06-26T12:56:52;97324.41;;;26.57;42.77
20160;BME280;50187;50.492;12.134;2023-06-26T12:59:20;97332.56;;;26.57;42.92
20160;BME280;50187;50.492;12.134;2023-06-26T13:01:47;97329.84;;;26.57;42.86
20160;BME280;50187;50.492;12.134;2023-06-26T13:04:14;97326.25;;;26.56;42.77
20160;BME280;50187;50.492;12.134;2023-06-26T13:06:43;97320.19;;;26.54;42.98
20160;BME280;50187;50.492;12.134;2023-06-26T13:09:10;97319.38;;;26.54;42.82
20160;BME280;50187;50.492;12.134;2023-06-26T13:11:37;97314.94;;;26.53;42.94
20160;BME280;50187;50.492;12.134;2023-06-26T13:14:04;97297.31;;;26.49;42.97
20160;BME280;50187;50.492;12.134;2023-06-26T13:16:37;97302.34;;;26.52;42.94
20160;BME280;50187;50.492;12.134;2023-06-26T13:19:04;97294.38;;;26.50;43.21
20160;BME280;50187;50.492;12.134;2023-06-26T13:21:31;97297.94;;;26.51;42.79
20160;BME280;50187;50.492;12.134;2023-06-26T13:23:58;97297.09;;;26.50;42.90